Port Moody, Canada
Current Conditions -  °F | °C
As of 6:00 AM on Saturday 20 Dec 2014 (Local Time) from CYVR Reporting Station
Light Rain Light Rain  
Wind Chill: 38°   Ceiling: 3100
Heat Index: 45°   Visibility: 10mi
Dew Point: 41°   Wind: 15mph
Humidity: 87%   Direction: 70°ENE
Pressure: 29.64"   Gusts: NA
Location:  49.28°N, 122.83°W
Report Text: CYVR 201400Z 07013KT 10SM -RA OVC031 07/05 A2964 RMK SC8 SLP036
Loading
Personal Weather Stations






























Interactive Weather Map New forecast layout! Learn more

10-Day Weather Forecast

Advertisements
Track Severe Weather on mobile